Airfield :
LOGIN :

Register | Disclaimer

   EN    FR    IT 

 










Legend :    VFR   Marginal VFR   IFR   Intensive IFR   Very Intensive IFR
Visi :
Ceiling :
>= 8 km
>= 3000ft
5 to 8 km
1000 to 3000 ft
1500m to 5 km
500 to 1000 ft
800 to 1500m
200 to 500 ft
< 800m
< 200 ft
Symbols :   Thunderstorms  Fog  Heavy snow  Heavy precipitations  Wind > 20 kt
SIGMETs :     Misc.  Thunderstorms  Icing  Turbulence  Mountain Waves  Volcanic Ashes






- Airport Elevation : 202 ft
- IATA code : LGW


EGKK - London Gatwick

CURRENT METAR :
  • 232250Z 09003KT 3500 BR OVC012 12/12 Q1005

EXPIRED METARs :
  • 232220Z 07003KT 4000 BR OVC015 12/12 Q1005
  • 232150Z VRB02KT 5000 BR BKN008 OVC016 12/12 Q1006
  • 232120Z 09004KT 040V120 5000 BR OVC008 12/12 Q1006
  • 232050Z 06004KT 6000 OVC008 12/12 Q1006

TAF TAF EGKK
Valid from the 23 at 18:00 until the 25 at 00:00 UTC


231703Z 2318/2424 VRB03KT 9999 SCT012
BECMG 2318/2320 7000 BKN005
PROB40
TEMPO 2320/2324 4000 -RADZ BR BKN003
TEMPO 2400/2409 2000 -RADZ BR BKN001
PROB30
TEMPO 2404/2409 0900 DZ FG
TEMPO 2409/2411 3000 RA BKN002
PROB30
TEMPO 2411/2413 1400 +RA BKN002
BECMG 2413/2416 9999 SCT005



MET'MAP, your aeronautical weather chart ! - Copyright ORBIFLY December 2007 - Disclaimer

ORBIFLY MET'MAP TEAM :

Programming & Development : Alexandra Zaïnal
Concept & Development : Baudouin d'Aumeries
Co-Development & Prog : Marc-Olivier Méhu
Technical & hardware support : Manuel Goepfert

Contact : metmap@orbifly.com




SOURCES & CREDITS :

   NOAA